Time;durP1;ratioP1;P1;durP2;ratioP2;P2;SDS_P1;SDS_P2;PMS_P1;PMS_P2;Temp;Humidity;BMP_temperature;BMP_pressure;BME280_temperature;BME280_humidity;BME280_pressure;Samples;Min_cycle;Max_cycle;Signal;HPM_P1;HPM_P2
2023/08/01 00:01:41;;;;;;;0.93;0.80;;;;;;;;;;5095100;28;20032;-80
2023/08/01 00:04:07;;;;;;;1.58;0.95;;;;;;;;;;5096314;28;20032;-81
2023/08/01 00:06:32;;;;;;;1.00;0.88;;;;;;;;;;5096285;28;20059;-82
2023/08/01 00:08:58;;;;;;;1.00;0.90;;;;;;;;;;5096852;28;20116;-81
2023/08/01 00:11:23;;;;;;;1.65;0.90;;;;;;;;;;5094994;28;20031;-81
2023/08/01 00:13:48;;;;;;;1.98;1.20;;;;;;;;;;5096693;28;20123;-80
2023/08/01 00:16:14;;;;;;;2.00;1.30;;;;;;;;;;5096249;28;20051;-80
2023/08/01 00:18:39;;;;;;;1.27;0.90;;;;;;;;;;5094861;28;20077;-80
2023/08/01 00:21:05;;;;;;;0.82;0.82;;;;;;;;;;5094984;28;20478;-81
2023/08/01 00:23:31;;;;;;;1.60;1.02;;;;;;;;;;5095867;28;20098;-81
2023/08/01 00:25:56;;;;;;;1.30;0.98;;;;;;;;;;5095911;28;20047;-81
2023/08/01 00:28:22;;;;;;;1.35;0.90;;;;;;;;;;5095883;28;20028;-81
2023/08/01 00:30:48;;;;;;;1.30;1.20;;;;;;;;;;5095896;28;20478;-81
2023/08/01 00:33:14;;;;;;;1.25;1.00;;;;;;;;;;5095064;28;20462;-81
2023/08/01 00:35:40;;;;;;;1.20;1.00;;;;;;;;;;5096016;28;20020;-81
2023/08/01 00:38:05;;;;;;;1.73;1.00;;;;;;;;;;5095963;28;20042;-80
2023/08/01 00:40:31;;;;;;;2.78;1.10;;;;;;;;;;5094308;28;20068;-80
2023/08/01 00:42:56;;;;;;;1.45;1.00;;;;;;;;;;5094731;28;20020;-81
2023/08/01 00:45:24;;;;;;;1.77;0.90;;;;;;;;;;5094356;28;20050;-81
2023/08/01 00:47:51;;;;;;;1.20;1.10;;;;;;;;;;5094905;28;20450;-81
2023/08/01 00:50:16;;;;;;;2.03;1.15;;;;;;;;;;5094318;28;20466;-81
2023/08/01 00:52:42;;;;;;;1.15;0.90;;;;;;;;;;5094184;28;20024;-81
2023/08/01 00:55:07;;;;;;;1.23;1.05;;;;;;;;;;5094207;28;20032;-81
2023/08/01 00:57:34;;;;;;;2.22;1.20;;;;;;;;;;5094328;28;20048;-81
2023/08/01 00:59:59;;;;;;;2.10;1.10;;;;;;;;;;5094377;28;20036;-81
2023/08/01 01:02:24;;;;;;;1.23;1.00;;;;;;;;;;5095653;28;20031;-80
2023/08/01 01:04:50;;;;;;;1.23;1.00;;;;;;;;;;5095259;28;20035;-80
2023/08/01 01:07:17;;;;;;;1.17;1.00;;;;;;;;;;5095287;28;20066;-80
2023/08/01 01:09:42;;;;;;;1.20;1.00;;;;;;;;;;5093821;28;20032;-80
2023/08/01 01:12:08;;;;;;;3.13;1.27;;;;;;;;;;5095010;28;20028;-80
2023/08/01 01:14:33;;;;;;;0.98;0.88;;;;;;;;;;5095232;28;20028;-81
2023/08/01 01:16:59;;;;;;;2.22;1.15;;;;;;;;;;5093752;28;20024;-80
2023/08/01 01:19:25;;;;;;;1.83;1.10;;;;;;;;;;5093854;28;20055;-80
2023/08/01 01:21:50;;;;;;;2.88;1.17;;;;;;;;;;5093765;28;20086;-80
2023/08/01 01:24:16;;;;;;;1.98;1.20;;;;;;;;;;5093621;28;20513;-80
2023/08/01 01:26:41;;;;;;;1.58;1.00;;;;;;;;;;5076502;28;20106;-80
2023/08/01 01:29:10;;;;;;;1.95;1.30;;;;;;;;;;5094660;28;20031;-80
2023/08/01 01:31:36;;;;;;;2.28;1.05;;;;;;;;;;5093512;28;20039;-80
2023/08/01 01:34:01;;;;;;;1.23;1.13;;;;;;;;;;5076440;28;20020;-80
2023/08/01 01:36:27;;;;;;;1.25;1.10;;;;;;;;;;5094546;28;20028;-80
2023/08/01 01:38:52;;;;;;;4.80;1.13;;;;;;;;;;5095030;28;20031;-80
2023/08/01 01:41:18;;;;;;;1.27;1.10;;;;;;;;;;5094467;28;20467;-80
2023/08/01 01:43:44;;;;;;;1.17;1.08;;;;;;;;;;5093270;28;20081;-80
2023/08/01 01:46:09;;;;;;;6.10;1.10;;;;;;;;;;5094314;28;20131;-80
2023/08/01 01:48:35;;;;;;;2.15;1.40;;;;;;;;;;5094592;28;20107;-80
2023/08/01 01:51:00;;;;;;;2.28;1.50;;;;;;;;;;5093247;28;20043;-80
2023/08/01 01:53:25;;;;;;;1.50;1.23;;;;;;;;;;5092963;28;20039;-80
2023/08/01 01:55:51;;;;;;;1.95;1.33;;;;;;;;;;5094403;28;20024;-80
2023/08/01 01:58:16;;;;;;;1.10;1.00;;;;;;;;;;5094213;28;20028;-80
2023/08/01 02:00:41;;;;;;;1.40;1.30;;;;;;;;;;5093236;28;20107;-81
2023/08/01 02:03:10;;;;;;;1.73;1.40;;;;;;;;;;5092859;28;20036;-81
2023/08/01 02:05:39;;;;;;;2.67;1.50;;;;;;;;;;5092842;28;20060;-81
2023/08/01 02:08:05;;;;;;;1.20;1.10;;;;;;;;;;5076416;28;20474;-81
2023/08/01 02:10:30;;;;;;;1.35;1.10;;;;;;;;;;5094243;28;20113;-81
2023/08/01 02:12:55;;;;;;;2.10;1.42;;;;;;;;;;5092990;28;20023;-81
2023/08/01 02:15:21;;;;;;;3.53;1.33;;;;;;;;;;5093507;28;20034;-81
2023/08/01 02:17:46;;;;;;;1.58;1.27;;;;;;;;;;5094100;28;20036;-81
2023/08/01 02:20:11;;;;;;;1.33;1.02;;;;;;;;;;5093935;28;20378;-81
2023/08/01 02:22:37;;;;;;;1.20;1.10;;;;;;;;;;5093856;28;20094;-80
2023/08/01 02:25:02;;;;;;;1.85;1.10;;;;;;;;;;5092842;28;20028;-81
2023/08/01 02:27:28;;;;;;;1.52;1.13;;;;;;;;;;5093832;28;20492;-81
2023/08/01 02:29:53;;;;;;;1.77;0.90;;;;;;;;;;5092449;28;20035;-81
2023/08/01 02:32:18;;;;;;;1.88;1.40;;;;;;;;;;5092693;28;20028;-81
2023/08/01 02:34:44;;;;;;;1.77;1.15;;;;;;;;;;5092637;28;20020;-80
2023/08/01 02:37:09;;;;;;;1.45;1.20;;;;;;;;;;5092650;28;20028;-80
2023/08/01 02:39:35;;;;;;;1.90;1.30;;;;;;;;;;5092228;28;20028;-80
2023/08/01 02:42:01;;;;;;;1.85;1.10;;;;;;;;;;5092556;28;20032;-80
2023/08/01 02:44:26;;;;;;;1.83;1.25;;;;;;;;;;5093731;28;20481;-80
2023/08/01 02:46:52;;;;;;;1.50;1.40;;;;;;;;;;5093597;28;20471;-80
2023/08/01 02:49:17;;;;;;;1.48;1.10;;;;;;;;;;5093530;28;20028;-80
2023/08/01 02:51:43;;;;;;;1.38;1.23;;;;;;;;;;5075239;28;20059;-81
2023/08/01 02:54:08;;;;;;;3.55;1.52;;;;;;;;;;5093330;28;20367;-81
2023/08/01 02:56:34;;;;;;;1.48;1.20;;;;;;;;;;5092000;28;20032;-81
2023/08/01 02:58:59;;;;;;;2.85;1.50;;;;;;;;;;5093579;28;20032;-81
2023/08/01 03:01:24;;;;;;;1.67;1.15;;;;;;;;;;5075480;28;20040;-81
2023/08/01 03:03:50;;;;;;;1.63;1.17;;;;;;;;;;5093381;28;20474;-81
2023/08/01 03:06:15;;;;;;;2.90;1.48;;;;;;;;;;5093133;28;20032;-81
2023/08/01 03:08:41;;;;;;;1.80;1.20;;;;;;;;;;5091961;28;20089;-80
2023/08/01 03:11:06;;;;;;;2.30;1.60;;;;;;;;;;5092552;28;20111;-81
2023/08/01 03:13:32;;;;;;;3.83;1.38;;;;;;;;;;5092267;28;20028;-81
2023/08/01 03:15:57;;;;;;;3.17;1.52;;;;;;;;;;5093091;28;20020;-81
2023/08/01 03:18:22;;;;;;;2.13;1.30;;;;;;;;;;5092206;28;20542;-81
2023/08/01 03:20:48;;;;;;;2.13;1.40;;;;;;;;;;5092080;28;20031;-81
2023/08/01 03:23:13;;;;;;;2.78;1.40;;;;;;;;;;5091629;28;20054;-81
2023/08/01 03:25:38;;;;;;;1.75;1.27;;;;;;;;;;5092397;28;20035;-81
2023/08/01 03:28:04;;;;;;;2.17;1.27;;;;;;;;;;5096446;28;20089;-81
2023/08/01 03:30:32;;;;;;;2.55;1.38;;;;;;;;;;5097007;28;20052;-81
2023/08/01 03:32:57;;;;;;;3.08;1.73;;;;;;;;;;5096933;28;20052;-81
2023/08/01 03:35:23;;;;;;;3.25;1.48;;;;;;;;;;5095964;28;20105;-81
2023/08/01 03:37:49;;;;;;;2.17;1.63;;;;;;;;;;5095984;28;20028;-82
2023/08/01 03:40:14;;;;;;;4.32;1.42;;;;;;;;;;5096813;28;20028;-82
2023/08/01 03:42:40;;;;;;;2.13;1.55;;;;;;;;;;5078475;28;20111;-81
2023/08/01 03:45:06;;;;;;;2.33;1.58;;;;;;;;;;5097280;28;20538;-80
2023/08/01 03:47:32;;;;;;;2.50;1.30;;;;;;;;;;5095408;28;20074;-81
2023/08/01 03:49:57;;;;;;;2.42;1.35;;;;;;;;;;5096955;28;20032;-81
2023/08/01 03:52:23;;;;;;;2.63;1.55;;;;;;;;;;5096636;28;20024;-81
2023/08/01 03:54:48;;;;;;;3.22;1.50;;;;;;;;;;5095664;28;20042;-81
2023/08/01 03:57:14;;;;;;;1.83;1.40;;;;;;;;;;5078294;28;20028;-81
2023/08/01 03:59:40;;;;;;;1.90;1.25;;;;;;;;;;5078315;28;20032;-81
2023/08/01 04:02:05;;;;;;;2.10;1.50;;;;;;;;;;5096194;28;20024;-80
2023/08/01 04:04:31;;;;;;;1.88;1.38;;;;;;;;;;5096518;28;20080;-81
2023/08/01 04:06:56;;;;;;;1.45;1.25;;;;;;;;;;5096711;28;20390;-81
2023/08/01 04:09:22;;;;;;;2.00;1.30;;;;;;;;;;5078323;28;20032;-81
2023/08/01 04:11:47;;;;;;;1.58;1.40;;;;;;;;;;5095801;28;20374;-81
2023/08/01 04:14:12;;;;;;;1.73;1.40;;;;;;;;;;5096405;28;20124;-81
2023/08/01 04:16:39;;;;;;;1.55;1.30;;;;;;;;;;5096192;28;20028;-81
2023/08/01 04:19:04;;;;;;;1.77;1.40;;;;;;;;;;5095171;28;20028;-81
2023/08/01 04:21:29;;;;;;;2.40;1.38;;;;;;;;;;5096812;28;20089;-81
2023/08/01 04:23:55;;;;;;;2.10;1.30;;;;;;;;;;5094768;28;20024;-81
2023/08/01 04:26:20;;;;;;;1.52;1.42;;;;;;;;;;5095005;28;20032;-81
2023/08/01 04:28:47;;;;;;;1.90;1.42;;;;;;;;;;5096079;28;20028;-81
2023/08/01 04:31:12;;;;;;;2.85;1.65;;;;;;;;;;5094890;28;20390;-81
2023/08/01 04:33:37;;;;;;;2.47;1.50;;;;;;;;;;5095854;28;20028;-80
2023/08/01 04:36:03;;;;;;;2.25;1.58;;;;;;;;;;5096605;28;20035;-81
2023/08/01 04:38:28;;;;;;;2.55;1.40;;;;;;;;;;5077380;28;20065;-80
2023/08/01 04:40:54;;;;;;;2.13;1.60;;;;;;;;;;5095970;28;20107;-80
2023/08/01 04:43:19;;;;;;;1.48;1.30;;;;;;;;;;5094457;28;20086;-80
2023/08/01 04:45:45;;;;;;;3.83;1.52;;;;;;;;;;5094390;28;20055;-80
2023/08/01 04:48:10;;;;;;;2.50;1.48;;;;;;;;;;5094303;28;20035;-80
2023/08/01 04:50:36;;;;;;;2.92;1.63;;;;;;;;;;5094469;28;20024;-81
2023/08/01 04:53:01;;;;;;;2.80;1.60;;;;;;;;;;5095436;28;20040;-81
2023/08/01 04:55:27;;;;;;;2.65;1.63;;;;;;;;;;5096198;28;20039;-80
2023/08/01 04:57:52;;;;;;;2.58;1.52;;;;;;;;;;5094579;28;20048;-80
2023/08/01 05:00:17;;;;;;;3.03;1.50;;;;;;;;;;5096057;28;20386;-80
2023/08/01 05:02:43;;;;;;;2.80;1.70;;;;;;;;;;5094241;28;20032;-80
2023/08/01 05:05:09;;;;;;;2.08;1.45;;;;;;;;;;5095304;28;20028;-80
2023/08/01 05:07:34;;;;;;;2.95;1.83;;;;;;;;;;5095166;28;20028;-79
2023/08/01 05:10:00;;;;;;;2.05;1.70;;;;;;;;;;5095304;28;20028;-80
2023/08/01 05:12:25;;;;;;;3.10;1.58;;;;;;;;;;5095493;28;20066;-80
2023/08/01 05:14:50;;;;;;;3.20;1.70;;;;;;;;;;5095162;28;20043;-80
2023/08/01 05:17:16;;;;;;;4.90;2.10;;;;;;;;;;5095605;28;20027;-80
2023/08/01 05:19:41;;;;;;;4.35;1.90;;;;;;;;;;5095360;28;20036;-80
2023/08/01 05:22:06;;;;;;;3.33;2.03;;;;;;;;;;5076872;28;20052;-81
2023/08/01 05:24:32;;;;;;;2.15;1.52;;;;;;;;;;5076900;28;20391;-81
2023/08/01 05:26:57;;;;;;;2.25;1.60;;;;;;;;;;5095180;28;20148;-81
2023/08/01 05:29:23;;;;;;;1.73;1.42;;;;;;;;;;5094047;28;20032;-80
2023/08/01 05:31:48;;;;;;;3.42;1.48;;;;;;;;;;5093592;28;20143;-80
2023/08/01 05:34:13;;;;;;;3.67;1.90;;;;;;;;;;5094673;28;20054;-80
2023/08/01 05:36:39;;;;;;;2.50;1.70;;;;;;;;;;5095243;28;20474;-80
2023/08/01 05:39:04;;;;;;;4.32;1.83;;;;;;;;;;5094818;28;20463;-79
2023/08/01 05:41:29;;;;;;;2.58;1.67;;;;;;;;;;5112222;28;20024;-80
2023/08/01 05:43:56;;;;;;;3.65;1.95;;;;;;;;;;5108744;28;20034;-81
2023/08/01 05:46:22;;;;;;;2.42;1.70;;;;;;;;;;5093398;28;20074;-80
2023/08/01 05:48:47;;;;;;;1.83;1.60;;;;;;;;;;5093483;28;20028;-80
2023/08/01 05:51:12;;;;;;;3.03;1.85;;;;;;;;;;5094842;28;20381;-80
2023/08/01 05:53:38;;;;;;;3.30;1.85;;;;;;;;;;5093184;28;20031;-81
2023/08/01 05:56:04;;;;;;;2.28;1.63;;;;;;;;;;5092949;28;20035;-80
2023/08/01 05:58:30;;;;;;;2.65;1.70;;;;;;;;;;5092950;28;20425;-80
2023/08/01 06:00:56;;;;;;;4.05;1.90;;;;;;;;;;5093225;28;20020;-80
2023/08/01 06:03:21;;;;;;;3.83;1.95;;;;;;;;;;5077042;28;20481;-80
2023/08/01 06:05:46;;;;;;;2.95;1.77;;;;;;;;;;5093229;28;20494;-80
2023/08/01 06:08:13;;;;;;;2.53;1.60;;;;;;;;;;5094677;28;20032;-81
2023/08/01 06:10:38;;;;;;;3.58;2.00;;;;;;;;;;5094083;28;20028;-81
2023/08/01 06:13:04;;;;;;;2.55;1.90;;;;;;;;;;5093127;28;20462;-80
2023/08/01 06:15:29;;;;;;;4.18;1.92;;;;;;;;;;5094214;28;20020;-80
2023/08/01 06:17:54;;;;;;;2.15;1.60;;;;;;;;;;5092789;28;20089;-80
2023/08/01 06:20:20;;;;;;;5.07;1.90;;;;;;;;;;5094123;28;20364;-80
2023/08/01 06:22:45;;;;;;;3.25;1.83;;;;;;;;;;5092639;28;20136;-80
2023/08/01 06:25:11;;;;;;;2.58;1.80;;;;;;;;;;5094140;28;20417;-80
2023/08/01 06:27:37;;;;;;;6.30;2.13;;;;;;;;;;5093699;28;20020;-80
2023/08/01 06:30:02;;;;;;;2.97;2.00;;;;;;;;;;5094030;28;20032;-80
2023/08/01 06:32:28;;;;;;;3.30;1.63;;;;;;;;;;5093730;28;20475;-80
2023/08/01 06:34:53;;;;;;;3.58;1.77;;;;;;;;;;5092889;28;20107;-80
2023/08/01 06:37:19;;;;;;;3.50;1.98;;;;;;;;;;5092842;28;20046;-80
2023/08/01 06:39:44;;;;;;;3.55;1.90;;;;;;;;;;5092429;28;20035;-81
2023/08/01 06:42:09;;;;;;;3.60;1.90;;;;;;;;;;5094022;28;20028;-81
2023/08/01 06:44:35;;;;;;;4.10;1.90;;;;;;;;;;5093906;28;20054;-80
2023/08/01 06:47:00;;;;;;;4.15;2.05;;;;;;;;;;5093805;28;20122;-80
2023/08/01 06:49:25;;;;;;;3.53;1.88;;;;;;;;;;5092175;28;20055;-80
2023/08/01 06:51:51;;;;;;;3.83;1.60;;;;;;;;;;5092238;28;20067;-79
2023/08/01 06:54:16;;;;;;;3.28;1.88;;;;;;;;;;5093558;28;20028;-81
2023/08/01 06:56:47;;;;;;;4.43;2.03;;;;;;;;;;5093704;28;20508;-81
2023/08/01 06:59:15;;;;;;;3.17;1.85;;;;;;;;;;5076298;28;20036;-81
2023/08/01 07:01:43;;;;;;;2.95;1.85;;;;;;;;;;5096357;28;20024;-81
2023/08/01 07:04:11;;;;;;;2.55;1.70;;;;;;;;;;5098100;28;20039;-80
2023/08/01 07:06:36;;;;;;;5.13;2.30;;;;;;;;;;5097455;28;20024;-80
2023/08/01 07:09:02;;;;;;;5.30;2.05;;;;;;;;;;5097757;28;20034;-80
2023/08/01 07:11:27;;;;;;;2.03;1.58;;;;;;;;;;5096185;28;20032;-80
2023/08/01 07:13:53;;;;;;;3.42;1.75;;;;;;;;;;5079353;28;20028;-80
2023/08/01 07:16:18;;;;;;;2.78;1.75;;;;;;;;;;5096349;28;20043;-80
2023/08/01 07:18:43;;;;;;;2.92;1.70;;;;;;;;;;5096255;28;20024;-80
2023/08/01 07:21:09;;;;;;;3.13;1.60;;;;;;;;;;5096885;28;20028;-80
2023/08/01 07:23:35;;;;;;;4.20;1.50;;;;;;;;;;5097093;28;20052;-78
2023/08/01 07:26:01;;;;;;;4.13;1.85;;;;;;;;;;5096545;28;20490;-80
2023/08/01 07:28:26;;;;;;;3.40;1.85;;;;;;;;;;5096158;28;20127;-78
2023/08/01 07:31:02;;;;;;;4.88;2.05;;;;;;;;;;5097630;28;20110;-79
2023/08/01 07:33:28;;;;;;;3.50;2.10;;;;;;;;;;5096458;28;20377;-79
2023/08/01 07:35:53;;;;;;;3.83;1.58;;;;;;;;;;5097121;28;20016;-79
2023/08/01 07:38:19;;;;;;;2.78;1.50;;;;;;;;;;5095716;28;20032;-79
2023/08/01 07:40:44;;;;;;;2.88;1.48;;;;;;;;;;5097020;28;20062;-79
2023/08/01 07:43:10;;;;;;;5.75;2.03;;;;;;;;;;5078733;28;20031;-79
2023/08/01 07:45:36;;;;;;;4.00;1.60;;;;;;;;;;5095696;28;20177;-80
2023/08/01 07:48:02;;;;;;;4.47;1.40;;;;;;;;;;5096044;28;20040;-79
2023/08/01 07:50:27;;;;;;;3.05;1.73;;;;;;;;;;5095631;28;20494;-79
2023/08/01 07:52:52;;;;;;;2.80;1.63;;;;;;;;;;5095550;28;20398;-80
2023/08/01 07:55:18;;;;;;;4.10;1.60;;;;;;;;;;5095512;28;20125;-81
2023/08/01 07:57:44;;;;;;;3.17;1.60;;;;;;;;;;5095465;28;20024;-80
2023/08/01 08:00:10;;;;;;;3.83;1.65;;;;;;;;;;5096890;28;20094;-80
2023/08/01 08:02:36;;;;;;;3.85;1.98;;;;;;;;;;5095541;28;20031;-81
2023/08/01 08:05:01;;;;;;;4.32;1.58;;;;;;;;;;5095251;28;20066;-80
2023/08/01 08:07:27;;;;;;;2.60;1.52;;;;;;;;;;5078319;28;20031;-80
2023/08/01 08:09:54;;;;;;;2.80;1.58;;;;;;;;;;5097113;28;20024;-80
2023/08/01 08:12:20;;;;;;;3.75;1.40;;;;;;;;;;5095918;28;20027;-81
2023/08/01 08:14:46;;;;;;;4.05;1.73;;;;;;;;;;5095409;28;20028;-79
2023/08/01 08:17:11;;;;;;;3.38;1.65;;;;;;;;;;5095089;28;20028;-78
2023/08/01 08:19:37;;;;;;;3.08;1.65;;;;;;;;;;5096627;28;20482;-79
2023/08/01 08:22:02;;;;;;;1.92;1.27;;;;;;;;;;5094880;28;20052;-79
2023/08/01 08:24:27;;;;;;;2.75;1.40;;;;;;;;;;5095700;28;20032;-79
2023/08/01 08:26:53;;;;;;;2.95;1.35;;;;;;;;;;5094746;28;20032;-80
2023/08/01 08:29:18;;;;;;;4.18;1.67;;;;;;;;;;5095132;28;20046;-79
2023/08/01 08:31:44;;;;;;;4.10;1.60;;;;;;;;;;5094729;28;20024;-79
2023/08/01 08:34:09;;;;;;;3.40;1.67;;;;;;;;;;5095981;28;20394;-80
2023/08/01 08:36:35;;;;;;;2.67;1.48;;;;;;;;;;5095301;28;20115;-79
2023/08/01 08:39:00;;;;;;;3.33;1.60;;;;;;;;;;5096847;28;20111;-80
2023/08/01 08:41:27;;;;;;;3.00;1.60;;;;;;;;;;5097004;28;20036;-79
2023/08/01 08:43:56;;;;;;;2.80;1.50;;;;;;;;;;5096164;28;20436;-79
2023/08/01 08:46:29;;;;;;;2.53;1.20;;;;;;;;;;5095693;28;20032;-79
2023/08/01 08:48:56;;;;;;;2.70;1.25;;;;;;;;;;5094790;28;20103;-79
2023/08/01 08:51:22;;;;;;;2.33;1.48;;;;;;;;;;5094546;28;20058;-79
2023/08/01 08:53:52;;;;;;;2.47;1.60;;;;;;;;;;5096168;28;20503;-80
2023/08/01 08:56:17;;;;;;;3.58;1.48;;;;;;;;;;5094264;28;20023;-79
2023/08/01 08:58:43;;;;;;;3.10;1.60;;;;;;;;;;5094338;28;20028;-79
2023/08/01 09:01:09;;;;;;;2.65;1.58;;;;;;;;;;5094824;28;20039;-80
2023/08/01 09:03:34;;;;;;;4.32;1.50;;;;;;;;;;5094383;28;20479;-80
2023/08/01 09:06:05;;;;;;;3.08;1.50;;;;;;;;;;5095302;28;20024;-80
2023/08/01 09:08:35;;;;;;;4.47;1.70;;;;;;;;;;5093879;28;20028;-80
2023/08/01 09:11:00;;;;;;;2.58;1.17;;;;;;;;;;5093926;28;20031;-80
2023/08/01 09:13:26;;;;;;;2.38;1.70;;;;;;;;;;5094214;28;20032;-80
2023/08/01 09:15:51;;;;;;;2.83;1.45;;;;;;;;;;5095097;28;20110;-80
2023/08/01 09:18:17;;;;;;;2.30;1.48;;;;;;;;;;5093861;28;20043;-80
2023/08/01 09:20:47;;;;;;;3.15;1.50;;;;;;;;;;5095315;28;20089;-80
2023/08/01 09:23:13;;;;;;;3.38;1.50;;;;;;;;;;5093552;28;20083;-80
2023/08/01 09:25:39;;;;;;;2.35;1.25;;;;;;;;;;5094240;28;20443;-80
2023/08/01 09:28:21;;;;;;;2.70;1.35;;;;;;;;;;5095222;28;20107;-80
2023/08/01 09:30:57;;;;;;;4.13;1.40;;;;;;;;;;5093684;28;20024;-80
2023/08/01 09:33:23;;;;;;;3.35;1.40;;;;;;;;;;5076714;28;20023;-80
2023/08/01 09:35:50;;;;;;;2.67;1.42;;;;;;;;;;5093831;28;20035;-80
2023/08/01 09:38:15;;;;;;;2.55;1.48;;;;;;;;;;5095067;28;20565;-80
2023/08/01 09:40:42;;;;;;;2.88;1.35;;;;;;;;;;5093589;28;20036;-80
2023/08/01 09:43:08;;;;;;;3.65;1.95;;;;;;;;;;5095673;28;20035;-80
2023/08/01 09:45:34;;;;;;;1.70;1.25;;;;;;;;;;5093259;28;20115;-80
2023/08/01 09:48:00;;;;;;;1.98;1.30;;;;;;;;;;5093480;28;20058;-80
2023/08/01 09:50:26;;;;;;;2.08;1.33;;;;;;;;;;5093305;28;20035;-80
2023/08/01 09:52:54;;;;;;;2.65;1.40;;;;;;;;;;5076192;28;20036;-81
2023/08/01 09:55:46;;;;;;;2.40;1.25;;;;;;;;;;5093172;28;20028;-80
2023/08/01 09:58:13;;;;;;;5.57;1.45;;;;;;;;;;5088521;28;20066;-80
2023/08/01 10:00:39;;;;;;;3.65;1.52;;;;;;;;;;5093384;28;20565;-80
2023/08/01 10:03:05;;;;;;;4.57;1.50;;;;;;;;;;5092964;28;20122;-80
2023/08/01 10:05:32;;;;;;;2.50;1.30;;;;;;;;;;5094455;28;20073;-80
2023/08/01 10:08:01;;;;;;;1.60;1.17;;;;;;;;;;5093232;28;20030;-81
2023/08/01 10:10:27;;;;;;;5.82;1.58;;;;;;;;;;5094216;28;20484;-80
2023/08/01 10:12:54;;;;;;;2.47;1.52;;;;;;;;;;5093221;28;20031;-80
2023/08/01 10:15:19;;;;;;;2.63;1.25;;;;;;;;;;5094669;28;20031;-80
2023/08/01 10:17:45;;;;;;;2.10;1.27;;;;;;;;;;5093634;28;20028;-80
2023/08/01 10:20:12;;;;;;;5.80;1.80;;;;;;;;;;5093180;28;20064;-80
2023/08/01 10:22:39;;;;;;;2.92;1.30;;;;;;;;;;5092922;28;20052;-80
2023/08/01 10:25:05;;;;;;;2.13;1.30;;;;;;;;;;5093008;28;20020;-82
2023/08/01 10:27:31;;;;;;;3.00;1.38;;;;;;;;;;5093985;28;20073;-82
2023/08/01 10:30:00;;;;;;;2.95;1.10;;;;;;;;;;5093793;28;20028;-80
2023/08/01 10:32:36;;;;;;;3.75;1.20;;;;;;;;;;5092501;28;20050;-80
2023/08/01 10:35:02;;;;;;;5.22;1.15;;;;;;;;;;5092717;28;20032;-81
2023/08/01 10:37:42;;;;;;;4.32;1.33;;;;;;;;;;5094178;28;20026;-81
2023/08/01 10:40:08;;;;;;;2.45;1.27;;;;;;;;;;5075472;28;20024;-81
2023/08/01 10:42:41;;;;;;;5.50;2.17;;;;;;;;;;5092488;28;20493;-81
2023/08/01 10:45:08;;;;;;;3.17;1.48;;;;;;;;;;5075545;28;20036;-81
2023/08/01 10:47:33;;;;;;;2.08;1.23;;;;;;;;;;5092190;28;20561;-81
2023/08/01 10:49:58;;;;;;;2.33;1.40;;;;;;;;;;5092319;28;20053;-81
2023/08/01 10:52:27;;;;;;;3.88;1.45;;;;;;;;;;5093443;28;20051;-81
2023/08/01 10:54:58;;;;;;;1.60;1.20;;;;;;;;;;5075334;28;20031;-81
2023/08/01 10:57:24;;;;;;;3.08;1.30;;;;;;;;;;5092348;28;20467;-80
2023/08/01 10:59:49;;;;;;;3.95;1.50;;;;;;;;;;5093411;28;20039;-81
2023/08/01 11:02:21;;;;;;;2.67;1.25;;;;;;;;;;5092258;28;20055;-81
2023/08/01 11:05:07;;;;;;;2.38;1.15;;;;;;;;;;5092036;28;20028;-81
2023/08/01 11:07:33;;;;;;;1.52;1.20;;;;;;;;;;5093134;28;20399;-81
2023/08/01 11:10:03;;;;;;;3.05;1.20;;;;;;;;;;5093436;28;20035;-81
2023/08/01 11:12:28;;;;;;;2.05;1.23;;;;;;;;;;5093342;28;20395;-81
2023/08/01 11:15:01;;;;;;;2.30;1.00;;;;;;;;;;5092390;28;20110;-80
2023/08/01 11:17:27;;;;;;;2.17;1.27;;;;;;;;;;5075263;28;20031;-81
2023/08/01 11:20:00;;;;;;;1.75;1.10;;;;;;;;;;5092108;28;20041;-80
2023/08/01 11:22:26;;;;;;;1.98;1.10;;;;;;;;;;5091895;28;20135;-80
2023/08/01 11:24:51;;;;;;;2.70;1.23;;;;;;;;;;5093317;28;20119;-80
2023/08/01 11:27:16;;;;;;;1.98;1.20;;;;;;;;;;5093378;28;20611;-81
2023/08/01 11:29:42;;;;;;;2.33;1.30;;;;;;;;;;5093205;28;20034;-81
2023/08/01 11:32:07;;;;;;;1.55;0.93;;;;;;;;;;5091981;28;20035;-81
2023/08/01 11:34:41;;;;;;;1.30;1.08;;;;;;;;;;5091890;28;20093;-81
2023/08/01 11:37:06;;;;;;;2.38;1.27;;;;;;;;;;5093694;28;20024;-80
2023/08/01 11:39:32;;;;;;;2.78;1.10;;;;;;;;;;5091819;28;20032;-81
2023/08/01 11:41:57;;;;;;;3.60;1.10;;;;;;;;;;5092183;28;20458;-82
2023/08/01 11:44:24;;;;;;;3.22;1.02;;;;;;;;;;5092196;28;20440;-83
2023/08/01 11:46:49;;;;;;;2.58;1.20;;;;;;;;;;5091766;28;20115;-81
2023/08/01 11:49:15;;;;;;;3.28;1.35;;;;;;;;;;5095305;28;20066;-81
2023/08/01 11:51:44;;;;;;;2.88;1.25;;;;;;;;;;5097083;28;20038;-81
2023/08/01 11:54:11;;;;;;;3.08;1.30;;;;;;;;;;5095910;28;20105;-80
2023/08/01 11:56:37;;;;;;;2.47;0.95;;;;;;;;;;5096085;28;20399;-81
2023/08/01 11:59:14;;;;;;;4.00;1.20;;;;;;;;;;5097021;28;20028;-81
2023/08/01 12:01:40;;;;;;;2.53;1.20;;;;;;;;;;5078469;28;20394;-81
2023/08/01 12:04:06;;;;;;;2.75;1.20;;;;;;;;;;5103901;28;20095;-80
2023/08/01 12:06:33;;;;;;;2.70;1.58;;;;;;;;;;5080610;28;20219;-79
2023/08/01 12:09:08;;;;;;;1.92;1.10;;;;;;;;;;5068830;28;20035;-79
2023/08/01 12:11:34;;;;;;;2.42;1.20;;;;;;;;;;5084056;28;20025;-81
2023/08/01 12:14:09;;;;;;;4.57;1.50;;;;;;;;;;5100820;28;20032;-81
2023/08/01 12:16:36;;;;;;;2.55;1.10;;;;;;;;;;5095249;28;20497;-80
2023/08/01 12:19:01;;;;;;;2.83;1.08;;;;;;;;;;5095297;28;20036;-81
2023/08/01 12:21:27;;;;;;;1.75;1.30;;;;;;;;;;5095158;28;20024;-82
2023/08/01 12:23:52;;;;;;;2.25;1.23;;;;;;;;;;5094811;28;20048;-80
2023/08/01 12:26:18;;;;;;;1.63;1.00;;;;;;;;;;5096059;28;20088;-81
2023/08/01 12:28:43;;;;;;;2.63;1.52;;;;;;;;;;5095023;28;20032;-81
2023/08/01 12:31:08;;;;;;;1.52;0.90;;;;;;;;;;5097187;28;20020;-79
2023/08/01 12:33:34;;;;;;;1.80;1.10;;;;;;;;;;5078857;28;20042;-78
2023/08/01 12:36:00;;;;;;;1.27;1.08;;;;;;;;;;5096597;28;20043;-79
2023/08/01 12:38:26;;;;;;;3.08;1.00;;;;;;;;;;5094756;28;20028;-80
2023/08/01 12:40:51;;;;;;;2.05;1.17;;;;;;;;;;5095817;28;20058;-80
2023/08/01 12:43:17;;;;;;;2.75;1.27;;;;;;;;;;5077614;28;20028;-79
2023/08/01 12:45:43;;;;;;;2.53;1.00;;;;;;;;;;5094494;28;20085;-80
2023/08/01 12:48:08;;;;;;;1.83;1.10;;;;;;;;;;5094363;28;20368;-81
2023/08/01 12:50:33;;;;;;;3.13;1.20;;;;;;;;;;5094448;28;20027;-80
2023/08/01 12:52:59;;;;;;;1.83;1.00;;;;;;;;;;5077753;28;20031;-80
2023/08/01 12:55:24;;;;;;;1.58;1.00;;;;;;;;;;5095643;28;20032;-79
2023/08/01 12:57:50;;;;;;;3.65;1.20;;;;;;;;;;5077848;28;20542;-80
2023/08/01 13:00:16;;;;;;;2.85;1.27;;;;;;;;;;5094196;28;20052;-81
2023/08/01 13:02:41;;;;;;;3.55;1.60;;;;;;;;;;5094157;28;20043;-81
2023/08/01 13:05:07;;;;;;;2.13;1.10;;;;;;;;;;5094140;28;20220;-80
2023/08/01 13:07:32;;;;;;;2.60;1.30;;;;;;;;;;5095480;28;20359;-82
2023/08/01 13:09:58;;;;;;;2.63;1.23;;;;;;;;;;5094602;28;20023;-80
2023/08/01 13:12:24;;;;;;;1.80;1.10;;;;;;;;;;5095541;28;20475;-80
2023/08/01 13:14:50;;;;;;;2.40;1.50;;;;;;;;;;5095586;28;20035;-81
2023/08/01 13:17:15;;;;;;;2.33;1.13;;;;;;;;;;5077028;28;20024;-81
2023/08/01 13:19:40;;;;;;;2.72;1.60;;;;;;;;;;5095635;28;20038;-81
2023/08/01 13:22:06;;;;;;;1.45;1.05;;;;;;;;;;5095066;28;20032;-81
2023/08/01 13:24:31;;;;;;;2.65;1.13;;;;;;;;;;5094888;28;20125;-80
2023/08/01 13:26:57;;;;;;;2.22;1.17;;;;;;;;;;5094980;28;20031;-80
2023/08/01 13:29:23;;;;;;;3.40;1.45;;;;;;;;;;5093593;28;20440;-80
2023/08/01 13:31:48;;;;;;;3.38;1.35;;;;;;;;;;5093477;28;20024;-80
2023/08/01 13:34:14;;;;;;;3.15;1.67;;;;;;;;;;5094426;28;20036;-81
2023/08/01 13:36:39;;;;;;;3.78;1.13;;;;;;;;;;5093477;28;20066;-80
2023/08/01 13:39:04;;;;;;;2.63;1.20;;;;;;;;;;5095184;28;20107;-81
2023/08/01 13:41:32;;;;;;;2.38;1.02;;;;;;;;;;5094937;28;20080;-81
2023/08/01 13:43:57;;;;;;;1.80;1.20;;;;;;;;;;5093454;28;20051;-81
2023/08/01 13:46:22;;;;;;;1.52;1.00;;;;;;;;;;5093326;28;20376;-81
2023/08/01 13:48:48;;;;;;;2.17;1.40;;;;;;;;;;5094720;28;20027;-81
2023/08/01 13:51:13;;;;;;;2.15;1.10;;;;;;;;;;5094905;28;20067;-81
2023/08/01 13:53:42;;;;;;;1.77;0.90;;;;;;;;;;5094973;28;20036;-81
2023/08/01 13:56:08;;;;;;;2.63;1.23;;;;;;;;;;5076546;28;20085;-81
2023/08/01 13:58:33;;;;;;;3.28;1.10;;;;;;;;;;5093488;28;20027;-81
2023/08/01 14:01:03;;;;;;;1.88;1.13;;;;;;;;;;5076152;28;20028;-81
2023/08/01 14:03:29;;;;;;;3.88;1.30;;;;;;;;;;5093364;28;20028;-80
2023/08/01 14:05:55;;;;;;;2.15;1.13;;;;;;;;;;5093470;28;20063;-80
2023/08/01 14:08:21;;;;;;;2.70;1.30;;;;;;;;;;5094113;28;20051;-81
2023/08/01 14:10:46;;;;;;;6.95;1.67;;;;;;;;;;5093471;28;20024;-80
2023/08/01 14:13:12;;;;;;;5.03;1.23;;;;;;;;;;5094229;28;20028;-81
2023/08/01 14:15:37;;;;;;;3.40;1.25;;;;;;;;;;5093018;28;20436;-79
2023/08/01 14:18:02;;;;;;;2.17;1.38;;;;;;;;;;5094119;28;20024;-80
2023/08/01 14:20:28;;;;;;;2.03;1.20;;;;;;;;;;5093265;28;20043;-80
2023/08/01 14:22:53;;;;;;;2.40;1.45;;;;;;;;;;5092847;28;20044;-81
2023/08/01 14:25:19;;;;;;;3.33;1.20;;;;;;;;;;5076321;28;20458;-79
2023/08/01 14:27:44;;;;;;;1.58;1.10;;;;;;;;;;5094022;28;20028;-80
2023/08/01 14:30:10;;;;;;;2.50;1.30;;;;;;;;;;5092715;28;20221;-80
2023/08/01 14:32:37;;;;;;;2.25;1.30;;;;;;;;;;5093016;28;20057;-80
2023/08/01 14:35:02;;;;;;;2.10;1.30;;;;;;;;;;5093342;28;20031;-80
2023/08/01 14:37:29;;;;;;;1.33;1.00;;;;;;;;;;5075647;28;20393;-80